76VA weather

Roubin & Janeiro Inc Heliport
Vienna, Virginia, United States

Public forecast

Using degrees Fahrenheit for public forecast. Weather courtesy of forecast.io.

Closest aviation weather report (METAR) to Roubin & Janeiro Inc Heliport

Closest report is Ronald Reagan Washington National Airport, 9.6 nm (17.8 km) E. Retrieved 2020/06/02 11:52 UTC (30 minutes ago):

KDCA 021152Z 21008KT 10SM SCT110 BKN170 OVC250 16/11 A3013 RMK AO2 SLP203 T01610106 10167 20144 58004

Closest aviation forecast (TAF) to Roubin & Janeiro Inc Heliport

Closest forecast is Ronald Reagan Washington National Airport, 9.6 nm (17.8 km) E. Retrieved 2020/06/02 12:36 UTC (0 seconds ago):

TAF KDCA 021133Z 0212/0318 24005KT P6SM BKN110 FM021800 21007KT P6SM SCT080 BKN090 FM022300 18007KT P6SM SCT070 BKN090 FM030200 19005KT P6SM FEW060 SCT120 FM030400 22005KT P6SM FEW060 SCT140 FM031200 25007KT P6SM FEW070 SCT250